Airfield :
LOGIN :

Register | Disclaimer

   EN    FR    IT 

 










Legend :    VFR   Marginal VFR   IFR   Intensive IFR   Very Intensive IFR
Visi :
Ceiling :
>= 8 km
>= 3000ft
5 to 8 km
1000 to 3000 ft
1500m to 5 km
500 to 1000 ft
800 to 1500m
200 to 500 ft
< 800m
< 200 ft
Symbols :   Thunderstorms  Fog  Heavy snow  Heavy precipitations  Wind > 20 kt
SIGMETs :     Misc.  Thunderstorms  Icing  Turbulence  Mountain Waves  Volcanic Ashes






- Airport Elevation : 1325 ft
- IATA code : EBU


LFMH - St-Etienne Boutheon

CURRENT METAR :
  • 221600Z AUTO 36004KT 320V020 9999 -RA FEW017/// BKN038/// OVC049/// ///TCU 08/06 Q0994 TEMPO 34020G35KT BECMG BKN040

EXPIRED METARs :
  • 221530Z AUTO VRB02KT 9999 -RA FEW018 BKN037 OVC044 08/07 Q0993 TEMPO 34020G35KT
  • 221500Z AUTO VRB03KT 9999 -RA BKN036/// OVC042/// ///TCU 08/06 Q0992 TEMPO 34020G35KT BECMG BKN040
  • 221430Z AUTO VRB02KT 9999 -RA SCT044/// OVC050/// ///TCU 08/06 Q0992 TEMPO 34020G35KT BECMG BKN040
  • 221400Z AUTO 17003KT 140V200 9999 RA OVC050/// ///TCU 08/06 Q0992 BECMG 34010KT NSW NSC
  • 221330Z AUTO 15003KT 120V180 9999 -RA FEW047 OVC054 09/06 Q0992 BECMG 34010KT

TAF TAF LFMH
Valid from the 22 at 12:00 until the 23 at 12:00 UTC


221100Z 2212/2312 22008KT CAVOK
TEMPO 2212/2214 -RA BKN020 OVC060
BECMG 2214/2215 34010KT
FM221530 34015G25KT 9999 BKN040
PROB30
TEMPO 2216/2218 34020G35KT
BECMG 2218/2220 34008KT
PROB40
TEMPO 2220/2302 BKN012 BKN040
FM230200 16008KT CAVOK
BECMG 2309/2311 24012KT
PROB40
TEMPO 2311/2312 24015G25KT
ATIS : +33 4 77 36 17 51



MET'MAP, your aeronautical weather chart ! - Copyright ORBIFLY December 2007 - Disclaimer

ORBIFLY MET'MAP TEAM :

Programming & Development : Alexandra Zaïnal
Concept & original design : Baudouin d'Aumeries
Assistance for programming : Marc-Olivier Méhu
Technical & hardware support : Manuel Goepfert

Contact : metmap@orbifly.com




SOURCES & CREDITS :

   NOAA